createdAt,value
2018-03-14T00:00:59.673Z,6.40
2018-03-14T00:03:27.960Z,6.40
2018-03-14T00:05:56.266Z,6.40
2018-03-14T00:08:24.546Z,6.40
2018-03-14T00:10:52.806Z,6.40
2018-03-14T00:13:21.082Z,6.50
2018-03-14T00:15:49.325Z,6.40
2018-03-14T00:18:18.647Z,6.40
2018-03-14T00:20:46.930Z,6.40
2018-03-14T00:23:15.213Z,6.40
2018-03-14T00:25:43.482Z,6.40
2018-03-14T00:28:11.734Z,6.40
2018-03-14T00:30:40.910Z,6.40
2018-03-14T00:33:09.198Z,6.40
2018-03-14T00:35:38.292Z,6.40
2018-03-14T00:38:06.557Z,6.40
2018-03-14T00:40:34.814Z,6.50
2018-03-14T00:43:03.123Z,6.40
2018-03-14T00:45:32.200Z,6.40
2018-03-14T00:48:00.534Z,6.40
2018-03-14T00:50:28.824Z,6.40
2018-03-14T00:52:57.086Z,6.40
2018-03-14T00:55:25.338Z,6.30
2018-03-14T00:57:54.427Z,6.30
2018-03-14T01:00:23.514Z,6.30
2018-03-14T01:02:52.552Z,6.30
2018-03-14T01:05:20.859Z,6.30
2018-03-14T01:07:49.114Z,6.40
2018-03-14T01:10:17.395Z,6.40
2018-03-14T01:12:45.732Z,6.40
2018-03-14T01:15:14.792Z,6.30
2018-03-14T01:17:43.100Z,6.30
2018-03-14T01:20:12.164Z,6.30
2018-03-14T01:22:40.507Z,6.30
2018-03-14T01:25:08.817Z,6.30
2018-03-14T01:27:37.126Z,6.30
2018-03-14T01:30:07.130Z,6.30
2018-03-14T01:32:35.424Z,6.30
2018-03-14T01:35:03.752Z,6.30
2018-03-14T01:37:32.052Z,6.30
2018-03-14T01:40:00.314Z,6.30
2018-03-14T01:42:28.585Z,6.20
2018-03-14T01:44:56.830Z,6.30
2018-03-14T01:47:25.907Z,6.30
2018-03-14T01:49:54.946Z,6.30
2018-03-14T01:52:23.248Z,6.30
2018-03-14T01:54:51.500Z,6.30
2018-03-14T01:57:19.794Z,6.30
2018-03-14T01:59:48.108Z,6.30
2018-03-14T02:02:16.367Z,6.40
2018-03-14T02:04:44.621Z,6.40
2018-03-14T02:07:12.877Z,6.30
2018-03-14T02:09:41.133Z,6.30
2018-03-14T02:12:10.146Z,6.30
2018-03-14T02:14:38.489Z,6.30
2018-03-14T02:17:07.501Z,6.30
2018-03-14T02:19:36.553Z,6.30
2018-03-14T02:22:04.872Z,6.30
2018-03-14T02:24:33.888Z,6.30
2018-03-14T02:27:02.218Z,6.30
2018-03-14T02:29:30.499Z,6.30
2018-03-14T02:31:59.596Z,6.30
2018-03-14T02:34:27.837Z,6.30
2018-03-14T02:37:04.823Z,6.30
2018-03-14T02:39:33.057Z,6.30
2018-03-14T02:42:02.076Z,6.30
2018-03-14T02:44:30.372Z,6.30
2018-03-14T02:46:58.649Z,6.30
2018-03-14T02:49:26.936Z,6.30
2018-03-14T02:51:55.182Z,6.30
2018-03-14T02:54:23.473Z,6.30
2018-03-14T02:56:51.709Z,6.30
2018-03-14T02:59:20.023Z,6.20
2018-03-14T03:01:48.273Z,6.30
2018-03-14T03:04:17.317Z,6.30
2018-03-14T03:06:45.608Z,6.20
2018-03-14T03:09:13.885Z,6.30
2018-03-14T03:11:42.178Z,6.30
2018-03-14T03:14:10.452Z,6.30
2018-03-14T03:16:38.775Z,6.30
2018-03-14T03:19:07.014Z,6.30
2018-03-14T03:21:35.261Z,6.30
2018-03-14T03:24:03.567Z,6.20
2018-03-14T03:26:31.852Z,6.20
2018-03-14T03:29:00.919Z,6.20
2018-03-14T03:31:29.209Z,6.20
2018-03-14T03:33:57.514Z,6.20
2018-03-14T03:36:26.520Z,6.20
2018-03-14T03:38:54.810Z,6.20
2018-03-14T03:41:23.094Z,6.20
2018-03-14T03:43:51.377Z,6.20
2018-03-14T03:46:19.675Z,6.00
2018-03-14T03:48:48.724Z,6.00
2018-03-14T03:51:17.011Z,6.00
2018-03-14T03:53:45.246Z,6.00
2018-03-14T03:56:13.848Z,6.10
2018-03-14T03:58:42.850Z,6.10
2018-03-14T04:01:11.100Z,6.00
2018-03-14T04:03:39.405Z,6.00
2018-03-14T04:06:07.687Z,6.00
2018-03-14T04:08:35.945Z,6.00
2018-03-14T04:11:04.966Z,6.10
2018-03-14T04:13:33.272Z,6.10
2018-03-14T04:16:01.508Z,6.10
2018-03-14T04:18:29.805Z,6.10
2018-03-14T04:20:58.070Z,6.10
2018-03-14T04:23:26.322Z,6.00
2018-03-14T04:25:55.383Z,6.10
2018-03-14T04:28:23.625Z,6.10
2018-03-14T04:30:51.888Z,6.00
2018-03-14T04:33:20.189Z,6.10
2018-03-14T04:35:48.440Z,6.00
2018-03-14T04:38:17.028Z,6.00
2018-03-14T04:40:45.260Z,6.10
2018-03-14T04:43:13.552Z,6.10
2018-03-14T04:45:41.832Z,6.10
2018-03-14T04:48:10.361Z,6.10
2018-03-14T04:50:38.606Z,6.10
2018-03-14T04:53:07.652Z,6.20
2018-03-14T04:55:35.892Z,6.10
2018-03-14T04:58:04.172Z,6.10
2018-03-14T05:00:32.480Z,6.10
2018-03-14T05:03:00.709Z,6.10
2018-03-14T05:05:30.101Z,6.10
2018-03-14T05:07:58.345Z,6.10
2018-03-14T05:10:26.580Z,6.10
2018-03-14T05:12:54.887Z,6.20
2018-03-14T05:15:23.162Z,6.20
2018-03-14T05:17:51.416Z,6.20
2018-03-14T05:20:19.658Z,6.20
2018-03-14T05:22:48.700Z,6.10
2018-03-14T05:25:16.987Z,6.10
2018-03-14T05:27:45.272Z,6.10
2018-03-14T05:30:13.537Z,6.20
2018-03-14T05:32:41.791Z,6.20
2018-03-14T05:35:10.117Z,6.20
2018-03-14T05:37:38.407Z,6.20
2018-03-14T05:40:06.716Z,6.20
2018-03-14T05:42:35.774Z,6.10
2018-03-14T05:45:04.036Z,6.10
2018-03-14T05:47:32.275Z,6.10
2018-03-14T05:50:00.542Z,6.20
2018-03-14T05:52:29.570Z,6.20
2018-03-14T05:54:57.849Z,6.20
2018-03-14T05:57:26.096Z,6.20
2018-03-14T05:59:54.354Z,6.20
2018-03-14T06:02:23.424Z,6.20
2018-03-14T06:04:51.673Z,6.20
2018-03-14T06:07:19.930Z,6.30
2018-03-14T06:09:48.253Z,6.30
2018-03-14T06:12:17.424Z,6.30
2018-03-14T06:14:45.662Z,6.30
2018-03-14T06:17:14.710Z,6.40
2018-03-14T06:19:42.963Z,6.30
2018-03-14T06:22:11.204Z,6.30
2018-03-14T06:24:40.276Z,6.40
2018-03-14T06:27:08.567Z,6.40
2018-03-14T06:29:36.860Z,6.40
2018-03-14T06:32:05.903Z,6.50
2018-03-14T06:34:34.158Z,6.40
2018-03-14T06:37:02.456Z,6.50
2018-03-14T06:39:30.695Z,6.50
2018-03-14T06:41:58.994Z,6.60
2018-03-14T06:44:27.283Z,6.50
2018-03-14T06:46:55.599Z,6.50
2018-03-14T06:49:23.848Z,6.50
2018-03-14T06:51:52.124Z,6.50
2018-03-14T06:54:20.401Z,6.50
2018-03-14T06:56:48.640Z,6.50
2018-03-14T06:59:28.733Z,6.50
2018-03-14T07:02:08.939Z,6.40
2018-03-14T07:04:54.997Z,6.40
2018-03-14T07:07:23.238Z,6.40
2018-03-14T07:09:51.492Z,6.40
2018-03-14T07:12:19.762Z,6.40
2018-03-14T07:14:49.144Z,6.40
2018-03-14T07:17:17.385Z,6.40
2018-03-14T07:19:45.679Z,6.40
2018-03-14T07:22:14.003Z,6.40
2018-03-14T07:24:42.286Z,6.40
2018-03-14T07:27:10.537Z,6.50
2018-03-14T07:29:39.556Z,6.50
2018-03-14T07:32:08.099Z,6.50
2018-03-14T07:34:36.343Z,6.50
2018-03-14T07:37:04.578Z,6.50
2018-03-14T07:39:33.642Z,6.50
2018-03-14T07:42:01.874Z,6.50
2018-03-14T07:44:30.176Z,6.50
2018-03-14T07:46:58.437Z,6.50
2018-03-14T07:49:26.706Z,6.50
2018-03-14T07:51:54.952Z,6.50
2018-03-14T07:54:23.974Z,6.50
2018-03-14T07:56:52.212Z,6.50
2018-03-14T07:59:21.276Z,6.50
2018-03-14T08:01:49.563Z,6.50
2018-03-14T08:04:17.838Z,6.50
2018-03-14T08:06:46.148Z,6.50
2018-03-14T08:09:15.187Z,6.50
2018-03-14T08:11:43.487Z,6.50
2018-03-14T08:14:11.776Z,6.50
2018-03-14T08:16:41.663Z,6.50
2018-03-14T08:19:09.902Z,6.50
2018-03-14T08:21:38.189Z,6.40
2018-03-14T08:24:06.494Z,6.50
2018-03-14T08:26:34.728Z,6.50
2018-03-14T08:29:03.762Z,6.70
2018-03-14T08:31:32.063Z,6.70
2018-03-14T08:34:00.343Z,6.70
2018-03-14T08:36:28.607Z,6.80
2018-03-14T08:38:56.849Z,6.80
2018-03-14T08:41:25.507Z,6.80
2018-03-14T08:43:53.749Z,6.80
2018-03-14T08:46:22.047Z,6.80
2018-03-14T08:48:50.342Z,6.70
2018-03-14T08:51:19.354Z,6.70
2018-03-14T08:53:47.666Z,6.70
2018-03-14T08:56:15.951Z,6.70
2018-03-14T08:58:44.243Z,6.80
2018-03-14T09:01:12.498Z,6.90
2018-03-14T09:06:14.488Z,7.00
2018-03-14T09:08:42.734Z,7.00
2018-03-14T09:11:11.096Z,7.10
2018-03-14T09:13:40.097Z,7.40
2018-03-14T09:16:08.341Z,7.30
2018-03-14T09:18:36.642Z,7.50
2018-03-14T09:21:05.657Z,7.70
2018-03-14T09:23:33.909Z,7.70
2018-03-14T09:26:02.914Z,7.90
2018-03-14T09:28:31.221Z,7.90
2018-03-14T09:30:59.492Z,7.90
2018-03-14T09:33:27.755Z,7.90
2018-03-14T09:35:56.048Z,7.90
2018-03-14T09:38:24.325Z,7.90
2018-03-14T09:40:52.652Z,7.90
2018-03-14T09:43:20.896Z,7.90
2018-03-14T09:45:49.188Z,8.00
2018-03-14T09:48:17.461Z,8.00
2018-03-14T09:50:45.718Z,8.00
2018-03-14T09:53:14.001Z,8.00
2018-03-14T09:55:43.048Z,8.00
2018-03-14T09:58:12.074Z,7.90
2018-03-14T10:00:40.320Z,7.90
2018-03-14T10:03:09.380Z,7.90
2018-03-14T10:05:37.660Z,7.90
2018-03-14T10:08:05.956Z,7.90
2018-03-14T10:10:34.229Z,7.90
2018-03-14T10:13:03.623Z,7.90
2018-03-14T10:15:31.886Z,7.90
2018-03-14T10:18:00.124Z,7.90
2018-03-14T10:20:28.384Z,7.90
2018-03-14T10:22:56.665Z,7.90
2018-03-14T10:25:25.693Z,7.90
2018-03-14T10:27:53.933Z,7.90
2018-03-14T10:30:23.021Z,7.90
2018-03-14T10:32:52.060Z,8.00
2018-03-14T10:35:20.379Z,8.00
2018-03-14T10:37:48.624Z,8.00
2018-03-14T10:40:16.866Z,8.10
2018-03-14T10:42:45.139Z,8.10
2018-03-14T10:45:13.551Z,8.10
2018-03-14T10:47:41.801Z,8.10
2018-03-14T10:50:10.043Z,8.10
2018-03-14T10:52:38.293Z,8.00
2018-03-14T10:55:06.625Z,8.00
2018-03-14T10:57:34.971Z,8.10
2018-03-14T11:00:03.264Z,8.10
2018-03-14T11:02:32.293Z,8.20
2018-03-14T11:05:00.634Z,8.20
2018-03-14T11:07:29.700Z,8.20
2018-03-14T11:09:57.999Z,8.20
2018-03-14T11:12:26.271Z,8.30
2018-03-14T11:14:54.573Z,8.30
2018-03-14T11:17:23.619Z,8.40
2018-03-14T11:19:51.901Z,8.30
2018-03-14T11:22:20.145Z,8.40
2018-03-14T11:24:48.387Z,8.40
2018-03-14T11:27:17.409Z,8.50
2018-03-14T11:29:45.696Z,8.40
2018-03-14T11:32:13.961Z,8.50
2018-03-14T11:34:42.253Z,8.40
2018-03-14T11:37:10.548Z,8.50
2018-03-14T11:39:38.800Z,8.40
2018-03-14T11:42:07.045Z,8.40
2018-03-14T11:44:36.094Z,8.50
2018-03-14T11:47:04.340Z,8.50
2018-03-14T11:49:32.642Z,8.50
2018-03-14T11:52:00.917Z,8.60
2018-03-14T11:54:29.204Z,8.70
2018-03-14T11:56:57.454Z,8.80
2018-03-14T11:59:25.710Z,8.80
2018-03-14T12:01:54.759Z,9.00
2018-03-14T12:04:22.990Z,9.00
2018-03-14T12:06:51.298Z,9.10
2018-03-14T12:09:19.526Z,9.20
2018-03-14T12:11:48.588Z,9.30
2018-03-14T12:14:16.815Z,9.30
2018-03-14T12:16:45.118Z,9.30
2018-03-14T12:19:13.356Z,9.30
2018-03-14T12:21:42.382Z,9.40
2018-03-14T12:24:10.665Z,9.40
2018-03-14T12:26:38.935Z,9.40
2018-03-14T12:29:07.181Z,9.50
2018-03-14T12:31:36.204Z,9.50
2018-03-14T12:34:04.505Z,9.50
2018-03-14T12:36:32.811Z,9.60
2018-03-14T12:39:01.111Z,9.60
2018-03-14T12:41:30.115Z,9.70
2018-03-14T12:43:58.413Z,9.60
2018-03-14T12:46:26.696Z,9.70
2018-03-14T12:48:54.918Z,9.70
2018-03-14T12:51:23.168Z,9.70
2018-03-14T12:53:51.409Z,9.80
2018-03-14T12:56:19.661Z,9.90
2018-03-14T12:58:48.674Z,10.00
2018-03-14T13:01:16.991Z,10.00
2018-03-14T13:03:46.008Z,10.10
2018-03-14T13:06:14.299Z,10.10
2018-03-14T13:08:42.603Z,10.10
2018-03-14T13:11:10.903Z,10.10
2018-03-14T13:13:39.177Z,10.10
2018-03-14T13:16:07.416Z,10.10
2018-03-14T13:18:36.456Z,10.00
2018-03-14T13:21:04.779Z,10.00
2018-03-14T13:23:33.081Z,10.00
2018-03-14T13:26:02.081Z,10.00
2018-03-14T13:28:30.410Z,10.00
2018-03-14T13:30:58.722Z,10.10
2018-03-14T13:33:27.746Z,10.10
2018-03-14T13:35:56.061Z,10.00
2018-03-14T13:38:24.364Z,10.00
2018-03-14T13:40:53.431Z,9.90
2018-03-14T13:43:21.692Z,9.80
2018-03-14T13:45:49.994Z,9.80
2018-03-14T13:48:18.276Z,9.80
2018-03-14T13:50:46.513Z,9.90
2018-03-14T13:53:14.780Z,9.90
2018-03-14T13:55:43.012Z,9.80
2018-03-14T13:58:12.105Z,9.80
2018-03-14T14:00:40.394Z,9.70
2018-03-14T14:03:08.674Z,9.70
2018-03-14T14:05:38.323Z,9.60
2018-03-14T14:08:06.592Z,9.50
2018-03-14T14:10:34.900Z,9.60
2018-03-14T14:13:03.150Z,9.60
2018-03-14T14:15:31.411Z,9.70
2018-03-14T14:18:00.404Z,9.70
2018-03-14T14:20:28.705Z,9.70
2018-03-14T14:22:56.946Z,9.80
2018-03-14T14:25:26.024Z,10.00
2018-03-14T14:27:54.314Z,9.90
2018-03-14T14:30:23.326Z,10.00
2018-03-14T14:32:51.575Z,10.00
2018-03-14T14:35:20.640Z,10.10
2018-03-14T14:37:48.910Z,10.10
2018-03-14T14:40:17.221Z,10.10
2018-03-14T14:42:45.509Z,10.10
2018-03-14T14:45:14.536Z,10.20
2018-03-14T14:47:42.790Z,10.20
2018-03-14T14:50:11.860Z,10.10
2018-03-14T14:52:40.148Z,10.10
2018-03-14T14:55:08.427Z,10.10
2018-03-14T14:57:37.448Z,10.10
2018-03-14T15:00:05.738Z,10.10
2018-03-14T15:02:34.044Z,10.10
2018-03-14T15:05:02.332Z,10.10
2018-03-14T15:07:30.602Z,10.20
2018-03-14T15:09:58.887Z,10.20
2018-03-14T15:12:27.160Z,10.20
2018-03-14T15:14:55.450Z,10.20
2018-03-14T15:17:23.749Z,10.20
2018-03-14T15:19:52.824Z,10.20
2018-03-14T15:22:21.366Z,10.20
2018-03-14T15:24:49.649Z,10.20
2018-03-14T15:27:17.880Z,10.20
2018-03-14T15:29:46.939Z,10.10
2018-03-14T15:32:15.189Z,10.10
2018-03-14T15:34:43.437Z,10.10
2018-03-14T15:37:12.516Z,10.00
2018-03-14T15:39:40.795Z,10.00
2018-03-14T15:42:09.871Z,10.00
2018-03-14T15:44:38.111Z,10.00
2018-03-14T15:47:06.428Z,10.00
2018-03-14T15:49:34.737Z,10.00
2018-03-14T15:52:03.755Z,10.00
2018-03-14T15:54:32.058Z,10.00
2018-03-14T15:57:00.330Z,10.00
2018-03-14T15:59:28.601Z,10.10
2018-03-14T16:01:56.889Z,10.10
2018-03-14T16:04:25.211Z,10.00
2018-03-14T16:06:54.214Z,10.00
2018-03-14T16:09:22.509Z,10.00
2018-03-14T16:11:50.766Z,10.00
2018-03-14T16:14:19.819Z,9.90
2018-03-14T16:16:48.081Z,9.90
2018-03-14T16:19:16.313Z,9.90
2018-03-14T16:21:45.400Z,9.80
2018-03-14T16:24:13.709Z,9.80
2018-03-14T16:26:41.999Z,9.80
2018-03-14T16:29:14.225Z,9.70
2018-03-14T16:31:43.278Z,9.60
2018-03-14T16:34:11.561Z,9.70
2018-03-14T16:36:39.809Z,9.70
2018-03-14T16:39:08.171Z,9.60
2018-03-14T16:41:37.183Z,9.70
2018-03-14T16:44:05.476Z,9.60
2018-03-14T16:46:33.783Z,9.70
2018-03-14T16:49:02.056Z,9.70
2018-03-14T16:51:30.373Z,9.60
2018-03-14T16:53:59.409Z,9.60
2018-03-14T16:56:27.714Z,9.60
2018-03-14T16:58:55.965Z,9.50
2018-03-14T17:01:24.256Z,9.60
2018-03-14T17:03:52.555Z,9.50
2018-03-14T17:06:20.811Z,9.50
2018-03-14T17:08:49.103Z,9.40
2018-03-14T17:11:17.359Z,9.40
2018-03-14T17:13:45.626Z,9.40
2018-03-14T17:16:13.914Z,9.30
2018-03-14T17:18:42.197Z,9.20
2018-03-14T17:21:10.491Z,9.20
2018-03-14T17:23:38.744Z,9.20
2018-03-14T17:26:07.026Z,9.20
2018-03-14T17:28:35.305Z,9.20
2018-03-14T17:31:03.590Z,9.10
2018-03-14T17:33:31.842Z,9.10
2018-03-14T17:36:00.124Z,9.10
2018-03-14T17:38:28.453Z,9.10
2018-03-14T17:40:58.102Z,9.00
2018-03-14T17:43:26.399Z,9.00
2018-03-14T17:45:54.643Z,9.00
2018-03-14T17:48:22.943Z,8.90
2018-03-14T17:50:51.256Z,8.80
2018-03-14T17:53:19.543Z,8.80
2018-03-14T17:55:48.613Z,8.80
2018-03-14T17:58:16.913Z,8.70
2018-03-14T18:00:45.201Z,8.70
2018-03-14T18:03:14.252Z,8.70
2018-03-14T18:05:42.533Z,8.60
2018-03-14T18:08:10.770Z,8.60
2018-03-14T18:10:39.027Z,8.60
2018-03-14T18:13:08.080Z,8.50
2018-03-14T18:15:36.365Z,8.60
2018-03-14T18:18:04.613Z,8.50
2018-03-14T18:20:32.852Z,8.50
2018-03-14T18:23:01.887Z,8.40
2018-03-14T18:25:30.141Z,8.40
2018-03-14T18:27:58.377Z,8.30
2018-03-14T18:30:26.682Z,8.30
2018-03-14T18:32:55.730Z,8.20
2018-03-14T18:35:24.018Z,8.20
2018-03-14T18:37:52.314Z,8.20
2018-03-14T18:40:20.606Z,8.10
2018-03-14T18:42:49.693Z,8.00
2018-03-14T18:45:18.723Z,7.90
2018-03-14T18:47:47.034Z,7.90
2018-03-14T18:50:15.339Z,7.80
2018-03-14T18:52:43.656Z,7.80
2018-03-14T18:55:11.914Z,7.70
2018-03-14T18:57:40.204Z,7.60
2018-03-14T19:00:08.512Z,7.50
2018-03-14T19:02:36.794Z,7.50
2018-03-14T19:05:05.055Z,7.40
2018-03-14T19:07:33.351Z,7.30
2018-03-14T19:10:01.644Z,7.30
2018-03-14T19:12:29.936Z,7.20
2018-03-14T19:14:58.268Z,7.10
2018-03-14T19:17:26.550Z,6.90
2018-03-14T19:19:54.841Z,6.80
2018-03-14T19:22:23.119Z,6.70
2018-03-14T19:24:51.417Z,6.50
2018-03-14T19:27:19.706Z,6.40
2018-03-14T19:29:48.784Z,6.20
2018-03-14T19:32:17.062Z,6.20
2018-03-14T19:34:45.351Z,6.10
2018-03-14T19:37:13.625Z,6.00
2018-03-14T19:39:42.664Z,5.80
2018-03-14T19:42:10.958Z,5.80
2018-03-14T19:44:39.254Z,5.80
2018-03-14T19:47:07.554Z,5.70
2018-03-14T19:49:36.449Z,5.60
2018-03-14T19:52:05.523Z,5.50
2018-03-14T19:54:33.872Z,5.50
2018-03-14T19:57:02.153Z,5.50
2018-03-14T19:59:30.397Z,5.40
2018-03-14T20:01:58.692Z,5.40
2018-03-14T20:04:26.936Z,5.30
2018-03-14T20:06:55.966Z,5.30
2018-03-14T20:09:24.260Z,5.20
2018-03-14T20:11:52.861Z,5.20
2018-03-14T20:14:21.141Z,5.10
2018-03-14T20:16:49.420Z,5.10
2018-03-14T20:19:17.685Z,5.00
2018-03-14T20:21:45.927Z,5.00
2018-03-14T20:24:14.184Z,5.00
2018-03-14T20:26:42.490Z,4.80
2018-03-14T20:29:10.805Z,4.70
2018-03-14T20:31:39.090Z,4.60
2018-03-14T20:34:08.280Z,4.50
2018-03-14T20:36:36.546Z,4.50
2018-03-14T20:39:04.804Z,4.30
2018-03-14T20:41:33.166Z,4.30
2018-03-14T20:44:01.404Z,4.30
2018-03-14T20:46:30.461Z,4.20
2018-03-14T20:48:58.721Z,4.20
2018-03-14T20:51:27.059Z,4.10
2018-03-14T20:53:56.106Z,4.00
2018-03-14T20:56:24.346Z,3.90
2018-03-14T20:58:53.398Z,3.80
2018-03-14T21:01:22.436Z,3.80
2018-03-14T21:03:50.701Z,3.80
2018-03-14T21:06:19.789Z,3.70
2018-03-14T21:08:49.237Z,3.60
2018-03-14T21:11:17.783Z,3.60
2018-03-14T21:13:46.026Z,3.60
2018-03-14T21:16:15.112Z,3.50
2018-03-14T21:18:43.359Z,3.50
2018-03-14T21:21:11.601Z,3.40
2018-03-14T21:23:40.656Z,3.30
2018-03-14T21:26:08.924Z,3.30
2018-03-14T21:28:37.237Z,3.30
2018-03-14T21:31:05.499Z,3.20
2018-03-14T21:33:33.794Z,3.20
2018-03-14T21:36:02.053Z,3.10
2018-03-14T21:38:30.317Z,3.10
2018-03-14T21:40:58.651Z,3.00
2018-03-14T21:43:26.964Z,3.00
2018-03-14T21:45:55.270Z,2.90
2018-03-14T21:48:23.520Z,2.80
2018-03-14T21:50:52.209Z,2.70
2018-03-14T21:53:20.458Z,2.60
2018-03-14T21:55:48.740Z,2.60
2018-03-14T21:58:17.035Z,2.50
2018-03-14T22:00:45.289Z,2.50
2018-03-14T22:03:13.564Z,2.50
2018-03-14T22:05:42.606Z,2.40
2018-03-14T22:08:10.892Z,2.30
2018-03-14T22:10:39.186Z,2.40
2018-03-14T22:13:07.483Z,2.30
2018-03-14T22:15:36.534Z,2.20
2018-03-14T22:18:05.579Z,2.20
2018-03-14T22:20:34.637Z,2.20
2018-03-14T22:23:02.883Z,2.10
2018-03-14T22:25:31.229Z,2.10
2018-03-14T22:28:00.285Z,2.00
2018-03-14T22:30:28.556Z,2.00
2018-03-14T22:32:56.848Z,2.00
2018-03-14T22:35:25.114Z,1.90
2018-03-14T22:37:53.388Z,1.90
2018-03-14T22:40:21.629Z,1.90
2018-03-14T22:42:49.884Z,1.90
2018-03-14T22:45:18.894Z,1.80
2018-03-14T22:47:47.169Z,1.80
2018-03-14T22:50:15.462Z,1.80
2018-03-14T22:52:43.708Z,1.80
2018-03-14T22:55:12.747Z,1.80
2018-03-14T22:57:40.984Z,1.80
2018-03-14T23:00:09.254Z,1.80
2018-03-14T23:02:38.311Z,1.70
2018-03-14T23:05:06.556Z,1.70
2018-03-14T23:07:34.800Z,1.70
2018-03-14T23:10:03.841Z,1.70
2018-03-14T23:12:32.128Z,1.60
2018-03-14T23:15:00.410Z,1.60
2018-03-14T23:17:28.664Z,1.70
2018-03-14T23:19:56.957Z,1.60
2018-03-14T23:22:25.233Z,1.60
2018-03-14T23:24:53.471Z,1.60
2018-03-14T23:27:21.800Z,1.60
2018-03-14T23:29:50.047Z,1.70
2018-03-14T23:32:18.349Z,1.60
2018-03-14T23:34:46.636Z,1.60
2018-03-14T23:37:15.728Z,1.60
2018-03-14T23:39:43.997Z,1.60
2018-03-14T23:42:12.241Z,1.60
2018-03-14T23:44:40.541Z,1.60
2018-03-14T23:47:08.829Z,1.60
2018-03-14T23:49:37.148Z,1.60
2018-03-14T23:52:06.167Z,1.50
2018-03-14T23:54:34.454Z,1.50
2018-03-14T23:57:02.715Z,1.50
2018-03-14T23:59:31.713Z,1.50
